sensor_id;sensor_type;location;lat;lon;timestamp;temperature;humidity
70807;DHT22;58882;52.170;5.386;2023-12-29T00:00:48;15.90;56.70
70807;DHT22;58882;52.170;5.386;2023-12-29T00:03:15;15.90;56.70
70807;DHT22;58882;52.170;5.386;2023-12-29T00:05:42;15.90;56.70
70807;DHT22;58882;52.170;5.386;2023-12-29T00:08:09;15.90;56.70
70807;DHT22;58882;52.170;5.386;2023-12-29T00:10:36;15.90;56.70
70807;DHT22;58882;52.170;5.386;2023-12-29T00:13:03;15.90;56.70
70807;DHT22;58882;52.170;5.386;2023-12-29T00:15:30;15.90;56.70
70807;DHT22;58882;52.170;5.386;2023-12-29T00:17:57;15.90;56.80
70807;DHT22;58882;52.170;5.386;2023-12-29T00:20:24;15.90;56.90
70807;DHT22;58882;52.170;5.386;2023-12-29T00:23:06;15.90;57.00
70807;DHT22;58882;52.170;5.386;2023-12-29T00:25:36;15.90;57.10
70807;DHT22;58882;52.170;5.386;2023-12-29T00:28:04;15.90;57.40
70807;DHT22;58882;52.170;5.386;2023-12-29T00:30:31;15.80;57.40
70807;DHT22;58882;52.170;5.386;2023-12-29T00:33:18;15.90;58.50
70807;DHT22;58882;52.170;5.386;2023-12-29T00:35:45;15.90;57.60
70807;DHT22;58882;52.170;5.386;2023-12-29T00:38:12;15.90;57.80
70807;DHT22;58882;52.170;5.386;2023-12-29T00:40:38;15.80;57.80
70807;DHT22;58882;52.170;5.386;2023-12-29T00:43:05;15.80;57.80
70807;DHT22;58882;52.170;5.386;2023-12-29T00:45:32;15.80;57.90
70807;DHT22;58882;52.170;5.386;2023-12-29T00:48:02;15.80;57.90
70807;DHT22;58882;52.170;5.386;2023-12-29T00:50:30;15.80;57.90
70807;DHT22;58882;52.170;5.386;2023-12-29T00:52:57;15.80;57.80
70807;DHT22;58882;52.170;5.386;2023-12-29T00:55:24;15.80;57.80
70807;DHT22;58882;52.170;5.386;2023-12-29T00:57:51;15.80;57.80
70807;DHT22;58882;52.170;5.386;2023-12-29T01:00:18;15.80;57.80
70807;DHT22;58882;52.170;5.386;2023-12-29T01:02:44;15.80;57.90
70807;DHT22;58882;52.170;5.386;2023-12-29T01:05:16;15.80;57.90
70807;DHT22;58882;52.170;5.386;2023-12-29T01:07:44;15.80;57.80
70807;DHT22;58882;52.170;5.386;2023-12-29T01:10:11;15.90;57.70
70807;DHT22;58882;52.170;5.386;2023-12-29T01:12:38;15.80;57.60
70807;DHT22;58882;52.170;5.386;2023-12-29T01:15:05;15.80;57.60
70807;DHT22;58882;52.170;5.386;2023-12-29T01:17:33;15.80;57.60
70807;DHT22;58882;52.170;5.386;2023-12-29T01:19:59;15.90;57.70
70807;DHT22;58882;52.170;5.386;2023-12-29T01:22:27;15.80;57.50
70807;DHT22;58882;52.170;5.386;2023-12-29T01:24:53;15.80;57.50
70807;DHT22;58882;52.170;5.386;2023-12-29T01:27:21;15.80;57.40
70807;DHT22;58882;52.170;5.386;2023-12-29T01:29:48;15.80;57.40
70807;DHT22;58882;52.170;5.386;2023-12-29T01:32:15;15.80;57.50
70807;DHT22;58882;52.170;5.386;2023-12-29T01:34:41;15.80;57.40
70807;DHT22;58882;52.170;5.386;2023-12-29T01:37:08;15.80;57.40
70807;DHT22;58882;52.170;5.386;2023-12-29T01:39:36;15.80;57.30
70807;DHT22;58882;52.170;5.386;2023-12-29T01:42:03;15.80;57.40
70807;DHT22;58882;52.170;5.386;2023-12-29T01:44:31;15.80;57.40
70807;DHT22;58882;52.170;5.386;2023-12-29T01:47:03;15.80;57.40
70807;DHT22;58882;52.170;5.386;2023-12-29T01:49:34;15.80;57.40
70807;DHT22;58882;52.170;5.386;2023-12-29T01:52:02;15.80;58.40
70807;DHT22;58882;52.170;5.386;2023-12-29T01:54:33;15.80;57.50
70807;DHT22;58882;52.170;5.386;2023-12-29T01:57:02;15.80;57.50
70807;DHT22;58882;52.170;5.386;2023-12-29T01:59:29;15.80;57.50
70807;DHT22;58882;52.170;5.386;2023-12-29T02:01:58;15.80;57.50
70807;DHT22;58882;52.170;5.386;2023-12-29T02:04:25;15.90;57.50
70807;DHT22;58882;52.170;5.386;2023-12-29T02:06:53;15.90;57.40
70807;DHT22;58882;52.170;5.386;2023-12-29T02:09:21;15.80;57.40
70807;DHT22;58882;52.170;5.386;2023-12-29T02:11:49;15.80;57.40
70807;DHT22;58882;52.170;5.386;2023-12-29T02:14:17;15.80;57.30
70807;DHT22;58882;52.170;5.386;2023-12-29T02:16:56;15.90;57.30
70807;DHT22;58882;52.170;5.386;2023-12-29T02:21:52;15.80;57.40
70807;DHT22;58882;52.170;5.386;2023-12-29T02:24:19;15.90;57.50
70807;DHT22;58882;52.170;5.386;2023-12-29T02:26:51;15.80;57.40
70807;DHT22;58882;52.170;5.386;2023-12-29T02:29:21;15.80;57.40
70807;DHT22;58882;52.170;5.386;2023-12-29T02:31:53;15.80;57.50
70807;DHT22;58882;52.170;5.386;2023-12-29T02:34:22;15.80;57.50
70807;DHT22;58882;52.170;5.386;2023-12-29T02:36:51;15.80;57.60
70807;DHT22;58882;52.170;5.386;2023-12-29T02:39:18;15.80;57.60
70807;DHT22;58882;52.170;5.386;2023-12-29T02:41:45;15.80;57.60
70807;DHT22;58882;52.170;5.386;2023-12-29T02:44:12;15.80;57.70
70807;DHT22;58882;52.170;5.386;2023-12-29T02:46:39;15.80;57.70
70807;DHT22;58882;52.170;5.386;2023-12-29T02:49:06;15.80;57.80
70807;DHT22;58882;52.170;5.386;2023-12-29T02:51:38;15.80;57.80
70807;DHT22;58882;52.170;5.386;2023-12-29T02:54:05;15.80;57.80
70807;DHT22;58882;52.170;5.386;2023-12-29T02:56:33;15.80;57.80
70807;DHT22;58882;52.170;5.386;2023-12-29T02:59:01;15.80;57.80
70807;DHT22;58882;52.170;5.386;2023-12-29T03:01:27;15.80;57.90
70807;DHT22;58882;52.170;5.386;2023-12-29T03:03:55;15.80;58.00
70807;DHT22;58882;52.170;5.386;2023-12-29T03:06:23;15.80;58.10
70807;DHT22;58882;52.170;5.386;2023-12-29T03:08:51;15.80;59.00
70807;DHT22;58882;52.170;5.386;2023-12-29T03:11:18;15.80;58.10
70807;DHT22;58882;52.170;5.386;2023-12-29T03:13:45;15.80;58.10
70807;DHT22;58882;52.170;5.386;2023-12-29T03:16:12;15.80;58.10
70807;DHT22;58882;52.170;5.386;2023-12-29T03:18:39;15.80;58.10
70807;DHT22;58882;52.170;5.386;2023-12-29T03:21:08;15.80;58.10
70807;DHT22;58882;52.170;5.386;2023-12-29T03:23:35;15.80;58.10
70807;DHT22;58882;52.170;5.386;2023-12-29T03:26:02;15.80;58.10
70807;DHT22;58882;52.170;5.386;2023-12-29T03:28:29;15.80;58.20
70807;DHT22;58882;52.170;5.386;2023-12-29T03:30:56;15.80;58.30
70807;DHT22;58882;52.170;5.386;2023-12-29T03:33:23;15.80;58.20
70807;DHT22;58882;52.170;5.386;2023-12-29T03:35:50;15.80;58.10
70807;DHT22;58882;52.170;5.386;2023-12-29T03:38:17;15.80;58.10
70807;DHT22;58882;52.170;5.386;2023-12-29T03:40:44;15.80;57.90
70807;DHT22;58882;52.170;5.386;2023-12-29T03:43:11;15.80;58.00
70807;DHT22;58882;52.170;5.386;2023-12-29T03:45:38;15.80;58.00
70807;DHT22;58882;52.170;5.386;2023-12-29T03:48:07;15.80;58.00
70807;DHT22;58882;52.170;5.386;2023-12-29T03:50:36;15.80;57.90
70807;DHT22;58882;52.170;5.386;2023-12-29T03:53:03;15.80;57.90
70807;DHT22;58882;52.170;5.386;2023-12-29T03:55:30;15.80;58.90
70807;DHT22;58882;52.170;5.386;2023-12-29T03:57:57;15.80;57.90
70807;DHT22;58882;52.170;5.386;2023-12-29T04:00:24;15.80;57.80
70807;DHT22;58882;52.170;5.386;2023-12-29T04:02:51;15.80;57.90
70807;DHT22;58882;52.170;5.386;2023-12-29T04:05:19;15.80;57.80
70807;DHT22;58882;52.170;5.386;2023-12-29T04:07:46;15.80;57.90
70807;DHT22;58882;52.170;5.386;2023-12-29T04:10:13;15.80;58.00
70807;DHT22;58882;52.170;5.386;2023-12-29T04:12:40;15.80;57.90
70807;DHT22;58882;52.170;5.386;2023-12-29T04:15:07;15.80;58.10
70807;DHT22;58882;52.170;5.386;2023-12-29T04:17:35;15.80;58.20
70807;DHT22;58882;52.170;5.386;2023-12-29T04:20:02;15.80;58.40
70807;DHT22;58882;52.170;5.386;2023-12-29T04:22:29;15.80;58.50
70807;DHT22;58882;52.170;5.386;2023-12-29T04:24:55;15.80;58.50
70807;DHT22;58882;52.170;5.386;2023-12-29T04:27:22;15.80;58.60
70807;DHT22;58882;52.170;5.386;2023-12-29T04:29:49;15.80;58.60
70807;DHT22;58882;52.170;5.386;2023-12-29T04:32:16;15.80;58.60
70807;DHT22;58882;52.170;5.386;2023-12-29T04:34:43;15.80;58.70
70807;DHT22;58882;52.170;5.386;2023-12-29T04:37:11;15.80;58.60
70807;DHT22;58882;52.170;5.386;2023-12-29T04:39:38;15.80;58.70
70807;DHT22;58882;52.170;5.386;2023-12-29T04:42:05;15.80;58.70
70807;DHT22;58882;52.170;5.386;2023-12-29T04:44:33;15.80;58.60
70807;DHT22;58882;52.170;5.386;2023-12-29T04:47:00;15.80;58.70
70807;DHT22;58882;52.170;5.386;2023-12-29T04:49:27;15.80;58.70
70807;DHT22;58882;52.170;5.386;2023-12-29T04:51:54;15.80;58.60
70807;DHT22;58882;52.170;5.386;2023-12-29T04:54:22;15.80;58.50
70807;DHT22;58882;52.170;5.386;2023-12-29T04:56:49;15.70;58.40
70807;DHT22;58882;52.170;5.386;2023-12-29T04:59:17;15.70;58.50
70807;DHT22;58882;52.170;5.386;2023-12-29T05:01:44;15.70;59.40
70807;DHT22;58882;52.170;5.386;2023-12-29T05:04:11;15.70;58.50
70807;DHT22;58882;52.170;5.386;2023-12-29T05:06:38;15.70;58.40
70807;DHT22;58882;52.170;5.386;2023-12-29T05:09:04;15.70;58.30
70807;DHT22;58882;52.170;5.386;2023-12-29T05:11:31;15.70;58.30
70807;DHT22;58882;52.170;5.386;2023-12-29T05:13:59;15.70;58.40
70807;DHT22;58882;52.170;5.386;2023-12-29T05:16:26;15.70;58.30
70807;DHT22;58882;52.170;5.386;2023-12-29T05:18:52;15.70;58.30
70807;DHT22;58882;52.170;5.386;2023-12-29T05:21:19;15.70;58.20
70807;DHT22;58882;52.170;5.386;2023-12-29T05:23:47;15.70;58.20
70807;DHT22;58882;52.170;5.386;2023-12-29T05:26:14;15.70;58.20
70807;DHT22;58882;52.170;5.386;2023-12-29T05:28:41;15.70;58.20
70807;DHT22;58882;52.170;5.386;2023-12-29T05:31:09;15.70;58.20
70807;DHT22;58882;52.170;5.386;2023-12-29T05:33:36;15.70;58.20
70807;DHT22;58882;52.170;5.386;2023-12-29T05:36:08;15.70;58.20
70807;DHT22;58882;52.170;5.386;2023-12-29T05:38:36;15.70;58.20
70807;DHT22;58882;52.170;5.386;2023-12-29T05:41:03;15.70;58.20
70807;DHT22;58882;52.170;5.386;2023-12-29T05:43:32;15.70;58.20
70807;DHT22;58882;52.170;5.386;2023-12-29T05:45:59;15.70;58.20
70807;DHT22;58882;52.170;5.386;2023-12-29T05:48:26;15.70;58.20
70807;DHT22;58882;52.170;5.386;2023-12-29T05:50:53;15.70;58.30
70807;DHT22;58882;52.170;5.386;2023-12-29T05:53:20;15.70;58.30
70807;DHT22;58882;52.170;5.386;2023-12-29T05:55:47;15.70;58.30
70807;DHT22;58882;52.170;5.386;2023-12-29T05:58:14;15.70;58.30
70807;DHT22;58882;52.170;5.386;2023-12-29T06:00:41;15.70;58.40
70807;DHT22;58882;52.170;5.386;2023-12-29T06:03:07;15.70;58.30
70807;DHT22;58882;52.170;5.386;2023-12-29T06:05:34;15.70;58.40
70807;DHT22;58882;52.170;5.386;2023-12-29T06:08:01;15.70;58.30
70807;DHT22;58882;52.170;5.386;2023-12-29T06:10:29;15.80;59.40
70807;DHT22;58882;52.170;5.386;2023-12-29T06:12:56;15.80;58.40
70807;DHT22;58882;52.170;5.386;2023-12-29T06:15:22;15.80;58.40
70807;DHT22;58882;52.170;5.386;2023-12-29T06:17:49;15.80;58.40
70807;DHT22;58882;52.170;5.386;2023-12-29T06:20:16;15.80;58.40
70807;DHT22;58882;52.170;5.386;2023-12-29T06:22:43;15.80;58.30
70807;DHT22;58882;52.170;5.386;2023-12-29T06:25:11;15.80;58.20
70807;DHT22;58882;52.170;5.386;2023-12-29T06:27:39;15.80;58.10
70807;DHT22;58882;52.170;5.386;2023-12-29T06:30:08;15.80;58.10
70807;DHT22;58882;52.170;5.386;2023-12-29T06:32:35;15.80;58.10
70807;DHT22;58882;52.170;5.386;2023-12-29T06:35:03;15.80;58.10
70807;DHT22;58882;52.170;5.386;2023-12-29T06:37:30;15.80;58.00
70807;DHT22;58882;52.170;5.386;2023-12-29T06:39:57;15.80;58.00
70807;DHT22;58882;52.170;5.386;2023-12-29T06:42:24;15.80;58.00
70807;DHT22;58882;52.170;5.386;2023-12-29T06:44:51;15.80;58.00
70807;DHT22;58882;52.170;5.386;2023-12-29T06:47:18;15.80;57.90
70807;DHT22;58882;52.170;5.386;2023-12-29T06:49:45;15.80;57.90
70807;DHT22;58882;52.170;5.386;2023-12-29T06:52:12;15.80;57.80
70807;DHT22;58882;52.170;5.386;2023-12-29T06:54:39;15.80;57.90
70807;DHT22;58882;52.170;5.386;2023-12-29T06:57:06;15.80;57.80
70807;DHT22;58882;52.170;5.386;2023-12-29T06:59:33;15.80;57.90
70807;DHT22;58882;52.170;5.386;2023-12-29T07:02:00;15.80;57.80
70807;DHT22;58882;52.170;5.386;2023-12-29T07:04:27;15.80;57.80
70807;DHT22;58882;52.170;5.386;2023-12-29T07:06:54;15.80;58.70
70807;DHT22;58882;52.170;5.386;2023-12-29T07:09:21;15.80;57.60
70807;DHT22;58882;52.170;5.386;2023-12-29T07:11:50;15.80;57.60
70807;DHT22;58882;52.170;5.386;2023-12-29T07:14:17;15.80;57.70
70807;DHT22;58882;52.170;5.386;2023-12-29T07:16:44;15.80;57.80
70807;DHT22;58882;52.170;5.386;2023-12-29T07:19:11;15.80;57.80
70807;DHT22;58882;52.170;5.386;2023-12-29T07:21:38;15.80;57.80
70807;DHT22;58882;52.170;5.386;2023-12-29T07:24:05;15.80;57.80
70807;DHT22;58882;52.170;5.386;2023-12-29T07:26:33;15.80;57.70
70807;DHT22;58882;52.170;5.386;2023-12-29T07:29:02;15.70;57.70
70807;DHT22;58882;52.170;5.386;2023-12-29T07:31:29;15.70;57.70
70807;DHT22;58882;52.170;5.386;2023-12-29T07:33:59;15.70;57.80
70807;DHT22;58882;52.170;5.386;2023-12-29T07:36:26;15.70;57.80
70807;DHT22;58882;52.170;5.386;2023-12-29T07:38:53;15.70;57.80
70807;DHT22;58882;52.170;5.386;2023-12-29T07:41:19;15.70;57.80
70807;DHT22;58882;52.170;5.386;2023-12-29T07:43:46;15.70;57.90
70807;DHT22;58882;52.170;5.386;2023-12-29T07:46:13;15.70;57.90
70807;DHT22;58882;52.170;5.386;2023-12-29T07:48:49;15.70;58.00
70807;DHT22;58882;52.170;5.386;2023-12-29T07:51:16;15.70;58.10
70807;DHT22;58882;52.170;5.386;2023-12-29T07:53:43;15.70;58.10
70807;DHT22;58882;52.170;5.386;2023-12-29T07:56:13;15.70;58.10
70807;DHT22;58882;52.170;5.386;2023-12-29T07:58:40;15.70;58.20
70807;DHT22;58882;52.170;5.386;2023-12-29T08:01:11;15.70;58.20
70807;DHT22;58882;52.170;5.386;2023-12-29T08:03:38;15.70;58.20
70807;DHT22;58882;52.170;5.386;2023-12-29T08:06:05;15.70;58.20
70807;DHT22;58882;52.170;5.386;2023-12-29T08:08:32;15.70;58.20
70807;DHT22;58882;52.170;5.386;2023-12-29T08:10:58;15.70;58.30
70807;DHT22;58882;52.170;5.386;2023-12-29T08:13:25;15.70;58.30
70807;DHT22;58882;52.170;5.386;2023-12-29T08:15:52;15.70;58.30
70807;DHT22;58882;52.170;5.386;2023-12-29T08:18:19;15.70;58.30
70807;DHT22;58882;52.170;5.386;2023-12-29T08:20:46;15.70;58.30
70807;DHT22;58882;52.170;5.386;2023-12-29T08:23:13;15.70;58.50
70807;DHT22;58882;52.170;5.386;2023-12-29T08:25:40;15.80;58.50
70807;DHT22;58882;52.170;5.386;2023-12-29T08:28:06;15.80;58.60
70807;DHT22;58882;52.170;5.386;2023-12-29T08:30:36;15.80;59.00
70807;DHT22;58882;52.170;5.386;2023-12-29T08:33:05;15.80;58.40
70807;DHT22;58882;52.170;5.386;2023-12-29T08:35:32;15.80;58.40
70807;DHT22;58882;52.170;5.386;2023-12-29T08:37:58;15.80;58.40
70807;DHT22;58882;52.170;5.386;2023-12-29T08:40:26;15.90;58.50
70807;DHT22;58882;52.170;5.386;2023-12-29T08:42:53;15.90;58.50
70807;DHT22;58882;52.170;5.386;2023-12-29T08:45:19;15.90;58.50
70807;DHT22;58882;52.170;5.386;2023-12-29T08:47:46;15.90;58.30
70807;DHT22;58882;52.170;5.386;2023-12-29T08:50:13;15.90;59.30
70807;DHT22;58882;52.170;5.386;2023-12-29T08:52:41;15.90;58.10
70807;DHT22;58882;52.170;5.386;2023-12-29T08:55:08;16.00;58.20
70807;DHT22;58882;52.170;5.386;2023-12-29T08:57:37;16.00;58.00
70807;DHT22;58882;52.170;5.386;2023-12-29T09:00:05;16.00;58.00
70807;DHT22;58882;52.170;5.386;2023-12-29T09:02:32;16.00;58.00
70807;DHT22;58882;52.170;5.386;2023-12-29T09:04:59;16.00;58.00
70807;DHT22;58882;52.170;5.386;2023-12-29T09:07:26;16.00;58.00
70807;DHT22;58882;52.170;5.386;2023-12-29T09:09:54;16.00;59.00
70807;DHT22;58882;52.170;5.386;2023-12-29T09:12:21;16.00;58.10
70807;DHT22;58882;52.170;5.386;2023-12-29T09:14:48;16.00;58.10
70807;DHT22;58882;52.170;5.386;2023-12-29T09:17:15;16.00;59.10
70807;DHT22;58882;52.170;5.386;2023-12-29T09:19:42;16.00;58.20
70807;DHT22;58882;52.170;5.386;2023-12-29T09:22:09;16.10;58.20
70807;DHT22;58882;52.170;5.386;2023-12-29T09:24:36;16.10;58.10
70807;DHT22;58882;52.170;5.386;2023-12-29T09:27:03;16.10;58.00
70807;DHT22;58882;52.170;5.386;2023-12-29T09:29:30;16.10;58.00
70807;DHT22;58882;52.170;5.386;2023-12-29T09:31:57;16.10;57.90
70807;DHT22;58882;52.170;5.386;2023-12-29T09:34:24;16.20;57.90
70807;DHT22;58882;52.170;5.386;2023-12-29T09:36:51;16.20;58.80
70807;DHT22;58882;52.170;5.386;2023-12-29T09:39:17;16.30;57.80
70807;DHT22;58882;52.170;5.386;2023-12-29T09:41:46;16.30;57.50
70807;DHT22;58882;52.170;5.386;2023-12-29T09:44:14;16.30;57.40
70807;DHT22;58882;52.170;5.386;2023-12-29T09:46:42;16.40;57.30
70807;DHT22;58882;52.170;5.386;2023-12-29T09:49:10;16.40;57.20
70807;DHT22;58882;52.170;5.386;2023-12-29T09:51:38;16.40;57.20
70807;DHT22;58882;52.170;5.386;2023-12-29T09:54:08;16.40;57.10
70807;DHT22;58882;52.170;5.386;2023-12-29T09:56:40;16.40;57.10
70807;DHT22;58882;52.170;5.386;2023-12-29T09:59:10;16.40;58.10
70807;DHT22;58882;52.170;5.386;2023-12-29T10:01:39;16.40;56.90
70807;DHT22;58882;52.170;5.386;2023-12-29T10:04:08;16.40;56.90
70807;DHT22;58882;52.170;5.386;2023-12-29T10:06:36;16.40;56.70
70807;DHT22;58882;52.170;5.386;2023-12-29T10:09:07;16.40;56.70
70807;DHT22;58882;52.170;5.386;2023-12-29T10:11:38;16.40;57.70
70807;DHT22;58882;52.170;5.386;2023-12-29T10:14:22;16.40;56.80
70807;DHT22;58882;52.170;5.386;2023-12-29T10:16:53;16.40;56.80
70807;DHT22;58882;52.170;5.386;2023-12-29T10:19:39;16.40;56.80
70807;DHT22;58882;52.170;5.386;2023-12-29T10:24:43;16.40;56.70
70807;DHT22;58882;52.170;5.386;2023-12-29T10:27:13;16.50;56.60
70807;DHT22;58882;52.170;5.386;2023-12-29T10:29:40;16.50;56.60
70807;DHT22;58882;52.170;5.386;2023-12-29T10:32:07;16.50;56.40
70807;DHT22;58882;52.170;5.386;2023-12-29T10:34:34;16.50;56.40
70807;DHT22;58882;52.170;5.386;2023-12-29T10:37:02;16.50;56.50
70807;DHT22;58882;52.170;5.386;2023-12-29T10:39:36;16.50;56.50
70807;DHT22;58882;52.170;5.386;2023-12-29T10:42:05;16.50;56.40
70807;DHT22;58882;52.170;5.386;2023-12-29T10:44:33;16.60;56.20
70807;DHT22;58882;52.170;5.386;2023-12-29T10:47:08;16.70;56.20
70807;DHT22;58882;52.170;5.386;2023-12-29T10:49:35;16.70;56.00
70807;DHT22;58882;52.170;5.386;2023-12-29T10:54:41;16.70;55.80
70807;DHT22;58882;52.170;5.386;2023-12-29T10:57:10;16.70;56.70
70807;DHT22;58882;52.170;5.386;2023-12-29T10:59:37;16.70;55.60
70807;DHT22;58882;52.170;5.386;2023-12-29T11:02:04;16.80;55.60
70807;DHT22;58882;52.170;5.386;2023-12-29T11:04:33;16.70;55.50
70807;DHT22;58882;52.170;5.386;2023-12-29T11:07:00;16.70;55.60
70807;DHT22;58882;52.170;5.386;2023-12-29T11:09:31;16.60;55.60
70807;DHT22;58882;52.170;5.386;2023-12-29T11:12:03;16.60;55.60
70807;DHT22;58882;52.170;5.386;2023-12-29T11:14:31;16.60;56.00
70807;DHT22;58882;52.170;5.386;2023-12-29T11:17:00;16.60;56.10
70807;DHT22;58882;52.170;5.386;2023-12-29T11:19:27;16.70;56.20
70807;DHT22;58882;52.170;5.386;2023-12-29T11:21:55;16.70;56.20
70807;DHT22;58882;52.170;5.386;2023-12-29T11:24:23;16.90;56.20
70807;DHT22;58882;52.170;5.386;2023-12-29T11:27:04;16.90;55.90
70807;DHT22;58882;52.170;5.386;2023-12-29T11:29:34;17.00;55.70
70807;DHT22;58882;52.170;5.386;2023-12-29T11:32:03;17.00;55.60
70807;DHT22;58882;52.170;5.386;2023-12-29T11:34:40;17.10;55.60
70807;DHT22;58882;52.170;5.386;2023-12-29T11:37:18;17.20;55.40
70807;DHT22;58882;52.170;5.386;2023-12-29T11:39:53;17.20;55.20
70807;DHT22;58882;52.170;5.386;2023-12-29T11:42:33;17.30;55.10
70807;DHT22;58882;52.170;5.386;2023-12-29T11:45:25;17.30;54.90
70807;DHT22;58882;52.170;5.386;2023-12-29T11:47:54;17.40;54.80
70807;DHT22;58882;52.170;5.386;2023-12-29T11:50:31;17.40;54.70
70807;DHT22;58882;52.170;5.386;2023-12-29T11:52:59;17.50;54.60
70807;DHT22;58882;52.170;5.386;2023-12-29T11:55:35;17.50;54.50
70807;DHT22;58882;52.170;5.386;2023-12-29T11:58:03;17.50;54.40
70807;DHT22;58882;52.170;5.386;2023-12-29T12:00:46;17.60;54.30
70807;DHT22;58882;52.170;5.386;2023-12-29T12:03:30;17.60;54.20
70807;DHT22;58882;52.170;5.386;2023-12-29T12:06:00;17.60;54.20
70807;DHT22;58882;52.170;5.386;2023-12-29T12:08:35;17.60;54.10
70807;DHT22;58882;52.170;5.386;2023-12-29T12:13:55;17.70;54.00
70807;DHT22;58882;52.170;5.386;2023-12-29T12:16:47;17.70;53.90
70807;DHT22;58882;52.170;5.386;2023-12-29T12:19:14;17.70;53.80
70807;DHT22;58882;52.170;5.386;2023-12-29T12:21:45;17.70;53.80
70807;DHT22;58882;52.170;5.386;2023-12-29T12:24:14;17.70;53.70
70807;DHT22;58882;52.170;5.386;2023-12-29T12:26:41;17.70;53.60
70807;DHT22;58882;52.170;5.386;2023-12-29T12:29:08;17.70;53.50
70807;DHT22;58882;52.170;5.386;2023-12-29T12:31:35;17.70;53.40
70807;DHT22;58882;52.170;5.386;2023-12-29T12:34:02;17.70;53.20
70807;DHT22;58882;52.170;5.386;2023-12-29T12:36:31;17.70;53.10
70807;DHT22;58882;52.170;5.386;2023-12-29T12:38:58;17.70;53.10
70807;DHT22;58882;52.170;5.386;2023-12-29T12:41:26;17.80;53.20
70807;DHT22;58882;52.170;5.386;2023-12-29T12:44:05;17.80;53.00
70807;DHT22;58882;52.170;5.386;2023-12-29T12:46:35;17.80;53.00
70807;DHT22;58882;52.170;5.386;2023-12-29T12:49:06;17.80;53.00
70807;DHT22;58882;52.170;5.386;2023-12-29T12:51:33;17.80;53.10
70807;DHT22;58882;52.170;5.386;2023-12-29T12:54:00;17.80;52.90
70807;DHT22;58882;52.170;5.386;2023-12-29T12:56:27;17.80;52.80
70807;DHT22;58882;52.170;5.386;2023-12-29T12:58:56;17.80;52.80
70807;DHT22;58882;52.170;5.386;2023-12-29T13:01:24;17.80;52.70
70807;DHT22;58882;52.170;5.386;2023-12-29T13:03:53;17.80;52.70
70807;DHT22;58882;52.170;5.386;2023-12-29T13:06:20;17.80;52.60
70807;DHT22;58882;52.170;5.386;2023-12-29T13:08:51;17.80;52.50
70807;DHT22;58882;52.170;5.386;2023-12-29T13:11:20;17.80;52.50
70807;DHT22;58882;52.170;5.386;2023-12-29T13:13:52;17.90;52.60
70807;DHT22;58882;52.170;5.386;2023-12-29T13:18:57;17.90;52.40
70807;DHT22;58882;52.170;5.386;2023-12-29T13:21:24;17.80;52.20
70807;DHT22;58882;52.170;5.386;2023-12-29T13:23:51;17.80;52.10
70807;DHT22;58882;52.170;5.386;2023-12-29T13:26:19;17.90;52.10
70807;DHT22;58882;52.170;5.386;2023-12-29T13:28:47;17.90;52.10
70807;DHT22;58882;52.170;5.386;2023-12-29T13:31:14;17.90;52.00
70807;DHT22;58882;52.170;5.386;2023-12-29T13:33:56;17.90;52.00
70807;DHT22;58882;52.170;5.386;2023-12-29T13:36:34;17.90;52.00
70807;DHT22;58882;52.170;5.386;2023-12-29T13:39:09;17.90;52.00
70807;DHT22;58882;52.170;5.386;2023-12-29T13:41:39;17.90;51.90
70807;DHT22;58882;52.170;5.386;2023-12-29T13:44:07;17.90;52.90
70807;DHT22;58882;52.170;5.386;2023-12-29T13:46:35;17.80;51.80
70807;DHT22;58882;52.170;5.386;2023-12-29T13:49:03;17.80;51.80
70807;DHT22;58882;52.170;5.386;2023-12-29T13:51:30;17.80;51.80
70807;DHT22;58882;52.170;5.386;2023-12-29T13:53:59;17.80;51.80
70807;DHT22;58882;52.170;5.386;2023-12-29T13:56:26;17.80;51.80
70807;DHT22;58882;52.170;5.386;2023-12-29T13:58:53;17.80;51.80
70807;DHT22;58882;52.170;5.386;2023-12-29T14:01:20;17.80;51.80
70807;DHT22;58882;52.170;5.386;2023-12-29T14:03:59;17.80;51.80
70807;DHT22;58882;52.170;5.386;2023-12-29T14:06:36;17.80;51.80
70807;DHT22;58882;52.170;5.386;2023-12-29T14:09:04;17.80;51.80
70807;DHT22;58882;52.170;5.386;2023-12-29T14:11:31;17.80;51.80
70807;DHT22;58882;52.170;5.386;2023-12-29T14:13:59;17.80;51.80
70807;DHT22;58882;52.170;5.386;2023-12-29T14:16:26;17.80;51.80
70807;DHT22;58882;52.170;5.386;2023-12-29T14:18:54;17.80;51.80
70807;DHT22;58882;52.170;5.386;2023-12-29T14:21:28;17.80;51.80
70807;DHT22;58882;52.170;5.386;2023-12-29T14:24:09;17.80;51.70
70807;DHT22;58882;52.170;5.386;2023-12-29T14:26:41;17.80;51.70
70807;DHT22;58882;52.170;5.386;2023-12-29T14:29:11;17.80;51.70
70807;DHT22;58882;52.170;5.386;2023-12-29T14:31:42;17.80;51.70
70807;DHT22;58882;52.170;5.386;2023-12-29T14:34:10;17.80;51.70
70807;DHT22;58882;52.170;5.386;2023-12-29T14:36:40;17.70;51.70
70807;DHT22;58882;52.170;5.386;2023-12-29T14:39:07;17.70;51.70
70807;DHT22;58882;52.170;5.386;2023-12-29T14:41:36;17.70;51.70
70807;DHT22;58882;52.170;5.386;2023-12-29T14:44:03;17.70;51.70
70807;DHT22;58882;52.170;5.386;2023-12-29T14:46:30;17.70;51.70
70807;DHT22;58882;52.170;5.386;2023-12-29T14:48:57;17.70;51.70
70807;DHT22;58882;52.170;5.386;2023-12-29T14:51:27;17.70;51.50
70807;DHT22;58882;52.170;5.386;2023-12-29T14:53:55;17.70;51.60
70807;DHT22;58882;52.170;5.386;2023-12-29T14:56:22;17.70;51.60
70807;DHT22;58882;52.170;5.386;2023-12-29T14:58:49;17.70;51.60
70807;DHT22;58882;52.170;5.386;2023-12-29T15:01:17;17.70;51.60
70807;DHT22;58882;52.170;5.386;2023-12-29T15:03:44;17.70;51.60
70807;DHT22;58882;52.170;5.386;2023-12-29T15:06:11;17.70;51.60
70807;DHT22;58882;52.170;5.386;2023-12-29T15:08:38;17.70;51.60
70807;DHT22;58882;52.170;5.386;2023-12-29T15:11:05;17.70;51.60
70807;DHT22;58882;52.170;5.386;2023-12-29T15:13:32;17.70;51.60
70807;DHT22;58882;52.170;5.386;2023-12-29T15:16:00;17.70;51.70
70807;DHT22;58882;52.170;5.386;2023-12-29T15:18:28;17.70;51.60
70807;DHT22;58882;52.170;5.386;2023-12-29T15:20:58;17.70;51.60
70807;DHT22;58882;52.170;5.386;2023-12-29T15:23:24;17.70;51.60
70807;DHT22;58882;52.170;5.386;2023-12-29T15:25:51;17.70;51.60
70807;DHT22;58882;52.170;5.386;2023-12-29T15:28:18;17.70;51.60
70807;DHT22;58882;52.170;5.386;2023-12-29T15:30:45;17.60;51.60
70807;DHT22;58882;52.170;5.386;2023-12-29T15:33:13;17.60;51.70
70807;DHT22;58882;52.170;5.386;2023-12-29T15:35:41;17.60;51.80
70807;DHT22;58882;52.170;5.386;2023-12-29T15:38:08;17.60;51.90
70807;DHT22;58882;52.170;5.386;2023-12-29T15:40:35;17.60;51.90
70807;DHT22;58882;52.170;5.386;2023-12-29T15:43:02;17.60;52.00
70807;DHT22;58882;52.170;5.386;2023-12-29T15:45:33;17.60;52.00
70807;DHT22;58882;52.170;5.386;2023-12-29T15:48:00;17.60;52.00
70807;DHT22;58882;52.170;5.386;2023-12-29T15:50:28;17.60;52.10